sensor_id;sensor_type;location;lat;lon;timestamp;pressure;altitude;pressure_sealevel;temperature;humidity
10978;BME280;5542;48.272;10.794;2022-11-20T00:01:28;95141.25;;;5.31;85.54
10978;BME280;5542;48.272;10.794;2022-11-20T00:03:56;95139.03;;;5.35;86.17
10978;BME280;5542;48.272;10.794;2022-11-20T00:06:24;95139.66;;;5.30;86.18
10978;BME280;5542;48.272;10.794;2022-11-20T00:08:54;95138.47;;;5.33;86.54
10978;BME280;5542;48.272;10.794;2022-11-20T00:11:22;95135.28;;;5.24;86.17
10978;BME280;5542;48.272;10.794;2022-11-20T00:13:50;95130.13;;;5.18;86.64
10978;BME280;5542;48.272;10.794;2022-11-20T00:16:20;95133.72;;;5.17;86.74
10978;BME280;5542;48.272;10.794;2022-11-20T00:18:48;95138.75;;;5.11;87.21
10978;BME280;5542;48.272;10.794;2022-11-20T00:21:16;95137.31;;;5.22;86.61
10978;BME280;5542;48.272;10.794;2022-11-20T00:23:43;95149.78;;;5.13;87.56
10978;BME280;5542;48.272;10.794;2022-11-20T00:26:11;95150.97;;;5.18;87.57
10978;BME280;5542;48.272;10.794;2022-11-20T00:28:38;95153.94;;;5.21;86.80
10978;BME280;5542;48.272;10.794;2022-11-20T00:31:07;95152.91;;;5.29;85.88
10978;BME280;5542;48.272;10.794;2022-11-20T00:33:35;95156.53;;;5.28;85.73
10978;BME280;5542;48.272;10.794;2022-11-20T00:36:04;95157.72;;;5.32;85.59
10978;BME280;5542;48.272;10.794;2022-11-20T00:38:31;95154.75;;;5.22;85.99
10978;BME280;5542;48.272;10.794;2022-11-20T00:40:59;95157.97;;;5.24;86.26
10978;BME280;5542;48.272;10.794;2022-11-20T00:43:27;95156.94;;;5.25;85.85
10978;BME280;5542;48.272;10.794;2022-11-20T00:45:57;95160.97;;;5.27;85.30
10978;BME280;5542;48.272;10.794;2022-11-20T00:48:24;95157.22;;;5.10;86.27
10978;BME280;5542;48.272;10.794;2022-11-20T00:50:52;95158.63;;;5.06;86.68
10978;BME280;5542;48.272;10.794;2022-11-20T00:53:20;95163.41;;;5.16;86.00
10978;BME280;5542;48.272;10.794;2022-11-20T00:55:57;95161.19;;;5.12;85.97
10978;BME280;5542;48.272;10.794;2022-11-20T00:58:29;95163.63;;;5.14;86.41
10978;BME280;5542;48.272;10.794;2022-11-20T01:00:59;95162.44;;;5.10;86.78
10978;BME280;5542;48.272;10.794;2022-11-20T01:03:26;95163.38;;;5.22;85.32
10978;BME280;5542;48.272;10.794;2022-11-20T01:05:54;95165.78;;;5.17;85.74
10978;BME280;5542;48.272;10.794;2022-11-20T01:08:25;95177.81;;;5.25;85.46
10978;BME280;5542;48.272;10.794;2022-11-20T01:10:51;95164.97;;;5.23;85.30
10978;BME280;5542;48.272;10.794;2022-11-20T01:13:18;95165.56;;;5.25;84.83
10978;BME280;5542;48.272;10.794;2022-11-20T01:16:04;95169.41;;;5.16;85.55
10978;BME280;5542;48.272;10.794;2022-11-20T01:18:30;95171.66;;;5.06;85.81
10978;BME280;5542;48.272;10.794;2022-11-20T01:21:01;95170.25;;;5.10;84.75
10978;BME280;5542;48.272;10.794;2022-11-20T01:23:32;95175.50;;;5.03;85.15
10978;BME280;5542;48.272;10.794;2022-11-20T01:26:00;95173.44;;;5.12;84.72
10978;BME280;5542;48.272;10.794;2022-11-20T01:28:28;95166.25;;;5.07;85.34
10978;BME280;5542;48.272;10.794;2022-11-20T01:30:55;95175.88;;;5.07;85.47
10978;BME280;5542;48.272;10.794;2022-11-20T01:33:23;95172.47;;;5.13;85.25
10978;BME280;5542;48.272;10.794;2022-11-20T01:35:49;95169.69;;;5.01;85.86
10978;BME280;5542;48.272;10.794;2022-11-20T01:38:17;95182.53;;;4.96;86.01
10978;BME280;5542;48.272;10.794;2022-11-20T01:40:45;95185.19;;;4.90;86.24
10978;BME280;5542;48.272;10.794;2022-11-20T01:43:17;95189.19;;;4.85;86.46
10978;BME280;5542;48.272;10.794;2022-11-20T01:46:04;95188.75;;;4.95;85.42
10978;BME280;5542;48.272;10.794;2022-11-20T01:48:38;95189.16;;;4.92;85.58
10978;BME280;5542;48.272;10.794;2022-11-20T01:51:07;95193.19;;;4.88;85.65
10978;BME280;5542;48.272;10.794;2022-11-20T01:53:38;95191.78;;;4.85;86.19
10978;BME280;5542;48.272;10.794;2022-11-20T01:56:08;95187.16;;;4.87;86.25
10978;BME280;5542;48.272;10.794;2022-11-20T01:58:39;95185.94;;;4.97;85.53
10978;BME280;5542;48.272;10.794;2022-11-20T02:01:08;95188.91;;;5.07;85.09
10978;BME280;5542;48.272;10.794;2022-11-20T02:03:35;95195.34;;;4.98;85.41
10978;BME280;5542;48.272;10.794;2022-11-20T02:06:06;95195.56;;;4.96;85.66
10978;BME280;5542;48.272;10.794;2022-11-20T02:08:35;95189.94;;;4.99;85.15
10978;BME280;5542;48.272;10.794;2022-11-20T02:11:04;95189.94;;;4.93;85.83
10978;BME280;5542;48.272;10.794;2022-11-20T02:13:31;95190.78;;;4.86;85.63
10978;BME280;5542;48.272;10.794;2022-11-20T02:16:15;95186.41;;;4.80;86.03
10978;BME280;5542;48.272;10.794;2022-11-20T02:18:43;95186.59;;;4.79;86.54
10978;BME280;5542;48.272;10.794;2022-11-20T02:21:18;95187.19;;;4.81;85.82
10978;BME280;5542;48.272;10.794;2022-11-20T02:24:09;95187.38;;;4.86;85.48
10978;BME280;5542;48.272;10.794;2022-11-20T02:26:42;95187.78;;;4.90;85.83
10978;BME280;5542;48.272;10.794;2022-11-20T02:29:11;95183.56;;;4.88;85.65
10978;BME280;5542;48.272;10.794;2022-11-20T02:31:41;95178.72;;;4.92;85.43
10978;BME280;5542;48.272;10.794;2022-11-20T02:34:08;95190.16;;;4.91;85.20
10978;BME280;5542;48.272;10.794;2022-11-20T02:36:36;95181.75;;;4.96;84.58
10978;BME280;5542;48.272;10.794;2022-11-20T02:39:05;95178.72;;;4.99;84.29
10978;BME280;5542;48.272;10.794;2022-11-20T02:41:36;95183.97;;;4.79;85.19
10978;BME280;5542;48.272;10.794;2022-11-20T02:44:04;95175.19;;;4.80;85.78
10978;BME280;5542;48.272;10.794;2022-11-20T02:46:31;95176.75;;;4.87;84.79
10978;BME280;5542;48.272;10.794;2022-11-20T02:48:58;95177.72;;;4.93;83.90
10978;BME280;5542;48.272;10.794;2022-11-20T02:51:24;95183.19;;;4.78;84.84
10978;BME280;5542;48.272;10.794;2022-11-20T02:53:51;95179.13;;;4.96;84.25
10978;BME280;5542;48.272;10.794;2022-11-20T02:56:18;95182.13;;;4.93;84.02
10978;BME280;5542;48.272;10.794;2022-11-20T02:58:46;95180.75;;;4.83;84.45
10978;BME280;5542;48.272;10.794;2022-11-20T03:01:12;95184.41;;;4.76;84.31
10978;BME280;5542;48.272;10.794;2022-11-20T03:03:39;95180.94;;;4.88;83.96
10978;BME280;5542;48.272;10.794;2022-11-20T03:06:06;95180.56;;;4.85;83.93
10978;BME280;5542;48.272;10.794;2022-11-20T03:08:33;95178.34;;;4.88;83.95
10978;BME280;5542;48.272;10.794;2022-11-20T03:11:03;95178.16;;;4.90;84.35
10978;BME280;5542;48.272;10.794;2022-11-20T03:13:30;95178.34;;;4.88;84.26
10978;BME280;5542;48.272;10.794;2022-11-20T03:15:58;95175.97;;;4.74;84.87
10978;BME280;5542;48.272;10.794;2022-11-20T03:18:27;95176.16;;;4.85;84.05
10978;BME280;5542;48.272;10.794;2022-11-20T03:20:57;95174.38;;;4.73;84.74
10978;BME280;5542;48.272;10.794;2022-11-20T03:23:24;95170.94;;;4.85;84.53
10978;BME280;5542;48.272;10.794;2022-11-20T03:25:50;95172.94;;;4.83;84.70
10978;BME280;5542;48.272;10.794;2022-11-20T03:28:17;95178.78;;;4.85;84.36
10978;BME280;5542;48.272;10.794;2022-11-20T03:30:44;95171.53;;;4.94;83.77
10978;BME280;5542;48.272;10.794;2022-11-20T03:33:12;95167.13;;;4.95;83.87
10978;BME280;5542;48.272;10.794;2022-11-20T03:35:38;95178.34;;;4.88;84.03
10978;BME280;5542;48.272;10.794;2022-11-20T03:38:05;95177.34;;;4.83;85.00
10978;BME280;5542;48.272;10.794;2022-11-20T03:40:33;95177.34;;;4.90;84.63
10978;BME280;5542;48.272;10.794;2022-11-20T03:43:00;95177.34;;;4.90;84.62
10978;BME280;5542;48.272;10.794;2022-11-20T03:45:26;95178.16;;;4.90;84.64
10978;BME280;5542;48.272;10.794;2022-11-20T03:47:53;95176.34;;;4.91;84.32
10978;BME280;5542;48.272;10.794;2022-11-20T03:50:21;95171.16;;;4.77;84.58
10978;BME280;5542;48.272;10.794;2022-11-20T03:52:48;95175.94;;;4.87;84.30
10978;BME280;5542;48.272;10.794;2022-11-20T03:55:14;95173.56;;;4.85;84.22
10978;BME280;5542;48.272;10.794;2022-11-20T03:57:41;95178.34;;;4.88;83.94
10978;BME280;5542;48.272;10.794;2022-11-20T04:00:08;95176.75;;;4.87;84.42
10978;BME280;5542;48.272;10.794;2022-11-20T04:02:35;95177.94;;;4.92;84.03
10978;BME280;5542;48.272;10.794;2022-11-20T04:05:02;95182.34;;;4.91;84.14
10978;BME280;5542;48.272;10.794;2022-11-20T04:07:30;95178.78;;;4.79;84.43
10978;BME280;5542;48.272;10.794;2022-11-20T04:09:56;95172.38;;;4.81;84.46
10978;BME280;5542;48.272;10.794;2022-11-20T04:12:23;95185.97;;;4.90;84.06
10978;BME280;5542;48.272;10.794;2022-11-20T04:14:49;95183.94;;;4.92;83.96
10978;BME280;5542;48.272;10.794;2022-11-20T04:17:16;95180.94;;;4.95;84.05
10978;BME280;5542;48.272;10.794;2022-11-20T04:19:43;95174.94;;;4.88;83.41
10978;BME280;5542;48.272;10.794;2022-11-20T04:22:09;95176.16;;;4.85;83.76
10978;BME280;5542;48.272;10.794;2022-11-20T04:24:38;95171.34;;;4.82;84.27
10978;BME280;5542;48.272;10.794;2022-11-20T04:27:05;95169.97;;;4.73;85.17
10978;BME280;5542;48.272;10.794;2022-11-20T04:29:31;95168.34;;;4.85;85.09
10978;BME280;5542;48.272;10.794;2022-11-20T04:31:58;95172.59;;;4.80;84.44
10978;BME280;5542;48.272;10.794;2022-11-20T04:34:25;95165.13;;;4.83;84.26
10978;BME280;5542;48.272;10.794;2022-11-20T04:36:51;95165.72;;;4.92;84.32
10978;BME280;5542;48.272;10.794;2022-11-20T04:39:18;95169.09;;;4.93;83.12
10978;BME280;5542;48.272;10.794;2022-11-20T04:41:46;95163.47;;;5.02;83.17
10978;BME280;5542;48.272;10.794;2022-11-20T04:44:13;95171.72;;;4.93;83.71
10978;BME280;5542;48.272;10.794;2022-11-20T04:46:41;95171.09;;;4.97;82.83
10978;BME280;5542;48.272;10.794;2022-11-20T04:49:12;95176.16;;;4.85;83.77
10978;BME280;5542;48.272;10.794;2022-11-20T04:51:39;95177.53;;;4.95;82.68
10978;BME280;5542;48.272;10.794;2022-11-20T04:54:06;95177.94;;;4.92;83.21
10978;BME280;5542;48.272;10.794;2022-11-20T04:56:32;95173.31;;;4.94;82.91
10978;BME280;5542;48.272;10.794;2022-11-20T04:59:01;95174.75;;;4.90;83.12
10978;BME280;5542;48.272;10.794;2022-11-20T05:01:28;95171.97;;;4.84;82.74
10978;BME280;5542;48.272;10.794;2022-11-20T05:03:54;95174.00;;;4.76;83.23
10978;BME280;5542;48.272;10.794;2022-11-20T05:06:21;95174.78;;;4.76;83.43
10978;BME280;5542;48.272;10.794;2022-11-20T05:08:48;95176.56;;;4.82;82.80
10978;BME280;5542;48.272;10.794;2022-11-20T05:11:16;95180.38;;;4.86;82.45
10978;BME280;5542;48.272;10.794;2022-11-20T05:13:43;95171.56;;;4.74;82.96
10978;BME280;5542;48.272;10.794;2022-11-20T05:16:12;95170.16;;;4.78;82.98
10978;BME280;5542;48.272;10.794;2022-11-20T05:18:40;95169.38;;;4.78;82.78
10978;BME280;5542;48.272;10.794;2022-11-20T05:21:07;95171.75;;;4.79;83.26
10978;BME280;5542;48.272;10.794;2022-11-20T05:23:34;95171.16;;;4.77;82.69
10978;BME280;5542;48.272;10.794;2022-11-20T05:26:02;95176.97;;;4.79;81.73
10978;BME280;5542;48.272;10.794;2022-11-20T05:28:29;95173.56;;;4.79;82.74
10978;BME280;5542;48.272;10.794;2022-11-20T05:31:04;95169.16;;;4.79;82.55
10978;BME280;5542;48.272;10.794;2022-11-20T05:33:32;95172.41;;;4.68;82.51
10978;BME280;5542;48.272;10.794;2022-11-20T05:35:58;95169.00;;;4.68;82.95
10978;BME280;5542;48.272;10.794;2022-11-20T05:38:25;95172.41;;;4.75;82.65
10978;BME280;5542;48.272;10.794;2022-11-20T05:40:52;95169.19;;;4.73;82.59
10978;BME280;5542;48.272;10.794;2022-11-20T05:43:18;95161.97;;;4.68;82.76
10978;BME280;5542;48.272;10.794;2022-11-20T05:45:52;95164.59;;;4.75;82.97
10978;BME280;5542;48.272;10.794;2022-11-20T05:48:19;95162.78;;;4.75;82.95
10978;BME280;5542;48.272;10.794;2022-11-20T05:50:47;95166.75;;;4.84;82.59
10978;BME280;5542;48.272;10.794;2022-11-20T05:53:13;95162.78;;;4.75;82.65
10978;BME280;5542;48.272;10.794;2022-11-20T05:55:40;95165.38;;;4.75;82.73
10978;BME280;5542;48.272;10.794;2022-11-20T05:58:07;95175.94;;;4.87;81.36
10978;BME280;5542;48.272;10.794;2022-11-20T06:00:34;95172.19;;;4.70;81.69
10978;BME280;5542;48.272;10.794;2022-11-20T06:03:00;95176.41;;;4.64;81.88
10978;BME280;5542;48.272;10.794;2022-11-20T06:05:27;95173.19;;;4.69;81.91
10978;BME280;5542;48.272;10.794;2022-11-20T06:07:55;95169.97;;;4.80;81.27
10978;BME280;5542;48.272;10.794;2022-11-20T06:10:21;95169.38;;;4.78;81.37
10978;BME280;5542;48.272;10.794;2022-11-20T06:12:48;95172.22;;;4.63;82.28
10978;BME280;5542;48.272;10.794;2022-11-20T06:15:15;95176.56;;;4.82;81.64
10978;BME280;5542;48.272;10.794;2022-11-20T06:17:41;95172.38;;;4.81;80.94
10978;BME280;5542;48.272;10.794;2022-11-20T06:20:09;95185.22;;;4.76;81.71
10978;BME280;5542;48.272;10.794;2022-11-20T06:22:36;95179.16;;;4.82;81.04
10978;BME280;5542;48.272;10.794;2022-11-20T06:25:04;95183.75;;;4.87;80.85
10978;BME280;5542;48.272;10.794;2022-11-20T06:27:30;95186.56;;;4.92;80.31
10978;BME280;5542;48.272;10.794;2022-11-20T06:29:57;95187.19;;;4.81;81.25
10978;BME280;5542;48.272;10.794;2022-11-20T06:32:24;95189.78;;;4.87;80.82
10978;BME280;5542;48.272;10.794;2022-11-20T06:34:50;95187.59;;;4.84;81.21
10978;BME280;5542;48.272;10.794;2022-11-20T06:37:17;95194.03;;;4.75;81.79
10978;BME280;5542;48.272;10.794;2022-11-20T06:39:43;95198.81;;;4.78;81.10
10978;BME280;5542;48.272;10.794;2022-11-20T06:42:11;95200.19;;;4.87;80.91
10978;BME280;5542;48.272;10.794;2022-11-20T06:44:38;95203.59;;;4.95;80.55
10978;BME280;5542;48.272;10.794;2022-11-20T06:47:04;95205.81;;;4.91;80.36
10978;BME280;5542;48.272;10.794;2022-11-20T06:49:31;95206.03;;;4.90;80.26
10978;BME280;5542;48.272;10.794;2022-11-20T06:51:59;95210.44;;;4.82;80.83
10978;BME280;5542;48.272;10.794;2022-11-20T06:54:26;95212.06;;;4.77;80.93
10978;BME280;5542;48.272;10.794;2022-11-20T06:56:52;95212.47;;;4.74;81.64
10978;BME280;5542;48.272;10.794;2022-11-20T06:59:20;95216.25;;;4.84;81.38
10978;BME280;5542;48.272;10.794;2022-11-20T07:01:47;95219.66;;;4.85;81.29
10978;BME280;5542;48.272;10.794;2022-11-20T07:04:13;95212.41;;;4.94;80.37
10978;BME280;5542;48.272;10.794;2022-11-20T07:06:40;95226.47;;;4.86;79.98
10978;BME280;5542;48.272;10.794;2022-11-20T07:09:06;95227.66;;;4.83;80.46
10978;BME280;5542;48.272;10.794;2022-11-20T07:11:33;95226.88;;;4.83;80.64
10978;BME280;5542;48.272;10.794;2022-11-20T07:13:59;95227.69;;;4.77;80.83
10978;BME280;5542;48.272;10.794;2022-11-20T07:16:27;95233.28;;;4.87;80.56
10978;BME280;5542;48.272;10.794;2022-11-20T07:18:54;95222.59;;;5.02;79.80
10978;BME280;5542;48.272;10.794;2022-11-20T07:21:20;95224.03;;;4.91;79.58
10978;BME280;5542;48.272;10.794;2022-11-20T07:23:47;95228.84;;;4.87;80.21
10978;BME280;5542;48.272;10.794;2022-11-20T07:26:13;95228.03;;;4.94;80.50
10978;BME280;5542;48.272;10.794;2022-11-20T07:28:43;95234.06;;;4.94;80.70
10978;BME280;5542;48.272;10.794;2022-11-20T07:31:10;95228.47;;;4.91;80.85
10978;BME280;5542;48.272;10.794;2022-11-20T07:33:39;95228.47;;;4.91;81.18
10978;BME280;5542;48.272;10.794;2022-11-20T07:36:06;95240.47;;;4.92;81.37
10978;BME280;5542;48.272;10.794;2022-11-20T07:38:33;95246.91;;;4.89;81.68
10978;BME280;5542;48.272;10.794;2022-11-20T07:40:59;95243.09;;;4.92;81.81
10978;BME280;5542;48.272;10.794;2022-11-20T07:43:26;95238.47;;;5.00;81.17
10978;BME280;5542;48.272;10.794;2022-11-20T07:45:54;95241.84;;;5.01;81.82
10978;BME280;5542;48.272;10.794;2022-11-20T07:48:21;95241.66;;;5.02;81.54
10978;BME280;5542;48.272;10.794;2022-11-20T07:50:52;95235.06;;;5.00;81.45
10978;BME280;5542;48.272;10.794;2022-11-20T07:53:19;95228.00;;;5.07;81.95
10978;BME280;5542;48.272;10.794;2022-11-20T07:55:46;95231.63;;;5.06;82.54
10978;BME280;5542;48.272;10.794;2022-11-20T07:58:12;95225.97;;;5.16;81.76
10978;BME280;5542;48.272;10.794;2022-11-20T08:00:40;95236.78;;;5.19;81.49
10978;BME280;5542;48.272;10.794;2022-11-20T08:03:07;95235.56;;;5.22;81.39
10978;BME280;5542;48.272;10.794;2022-11-20T08:05:33;95232.31;;;5.33;81.05
10978;BME280;5542;48.272;10.794;2022-11-20T08:08:01;95236.75;;;5.26;80.99
10978;BME280;5542;48.272;10.794;2022-11-20T08:10:28;95234.31;;;5.31;80.82
10978;BME280;5542;48.272;10.794;2022-11-20T08:12:55;95236.31;;;5.35;80.63
10978;BME280;5542;48.272;10.794;2022-11-20T08:15:39;95229.69;;;5.39;80.41
10978;BME280;5542;48.272;10.794;2022-11-20T08:18:08;95231.53;;;5.32;81.17
10978;BME280;5542;48.272;10.794;2022-11-20T08:20:36;95230.63;;;5.52;80.86
10978;BME280;5542;48.272;10.794;2022-11-20T08:23:05;95232.91;;;5.42;80.41
10978;BME280;5542;48.272;10.794;2022-11-20T08:25:32;95234.06;;;5.46;80.06
10978;BME280;5542;48.272;10.794;2022-11-20T08:28:00;95236.03;;;5.50;80.18
10978;BME280;5542;48.272;10.794;2022-11-20T08:30:27;95237.84;;;5.50;80.28
10978;BME280;5542;48.272;10.794;2022-11-20T08:32:54;95240.72;;;5.42;81.39
10978;BME280;5542;48.272;10.794;2022-11-20T08:35:21;95240.28;;;5.45;81.83
10978;BME280;5542;48.272;10.794;2022-11-20T08:37:48;95243.34;;;5.73;80.55
10978;BME280;5542;48.272;10.794;2022-11-20T08:40:16;95238.25;;;5.92;79.68
10978;BME280;5542;48.272;10.794;2022-11-20T08:42:46;95241.25;;;5.88;79.68
10978;BME280;5542;48.272;10.794;2022-11-20T08:45:14;95234.81;;;5.91;79.03
10978;BME280;5542;48.272;10.794;2022-11-20T08:47:40;95230.88;;;5.82;79.66
10978;BME280;5542;48.272;10.794;2022-11-20T08:50:08;95227.63;;;5.86;79.76
10978;BME280;5542;48.272;10.794;2022-11-20T08:52:34;95235.16;;;6.08;78.81
10978;BME280;5542;48.272;10.794;2022-11-20T08:55:01;95230.84;;;6.20;77.39
10978;BME280;5542;48.272;10.794;2022-11-20T08:57:31;95232.72;;;6.13;78.99
10978;BME280;5542;48.272;10.794;2022-11-20T08:59:57;95233.59;;;6.25;77.47
10978;BME280;5542;48.272;10.794;2022-11-20T09:02:24;95227.34;;;6.26;76.90
10978;BME280;5542;48.272;10.794;2022-11-20T09:04:51;95220.16;;;6.22;76.91
10978;BME280;5542;48.272;10.794;2022-11-20T09:07:18;95226.41;;;6.21;75.84
10978;BME280;5542;48.272;10.794;2022-11-20T09:09:45;95221.41;;;6.19;76.19
10978;BME280;5542;48.272;10.794;2022-11-20T09:12:11;95223.63;;;6.15;76.12
10978;BME280;5542;48.272;10.794;2022-11-20T09:14:39;95219.97;;;6.23;76.64
10978;BME280;5542;48.272;10.794;2022-11-20T09:17:06;95228.31;;;6.07;76.98
10978;BME280;5542;48.272;10.794;2022-11-20T09:19:33;95226.72;;;6.06;77.34
10978;BME280;5542;48.272;10.794;2022-11-20T09:21:59;95218.78;;;6.19;77.10
10978;BME280;5542;48.272;10.794;2022-11-20T09:24:26;95223.59;;;6.22;76.85
10978;BME280;5542;48.272;10.794;2022-11-20T09:26:53;95226.41;;;6.21;76.42
10978;BME280;5542;48.272;10.794;2022-11-20T09:29:19;95227.81;;;6.23;76.42
10978;BME280;5542;48.272;10.794;2022-11-20T09:31:47;95226.56;;;6.26;75.93
10978;BME280;5542;48.272;10.794;2022-11-20T09:34:14;95235.84;;;6.22;76.59
10978;BME280;5542;48.272;10.794;2022-11-20T09:36:40;95235.31;;;6.38;75.91
10978;BME280;5542;48.272;10.794;2022-11-20T09:39:07;95239.91;;;6.43;75.73
10978;BME280;5542;48.272;10.794;2022-11-20T09:41:48;95236.81;;;6.27;75.63
10978;BME280;5542;48.272;10.794;2022-11-20T09:44:28;95241.44;;;6.25;76.12
10978;BME280;5542;48.272;10.794;2022-11-20T09:47:03;95252.31;;;6.22;76.36
10978;BME280;5542;48.272;10.794;2022-11-20T09:49:42;95245.63;;;6.26;76.48
10978;BME280;5542;48.272;10.794;2022-11-20T09:52:22;95247.03;;;6.29;76.97
10978;BME280;5542;48.272;10.794;2022-11-20T09:54:54;95241.81;;;6.29;76.85
10978;BME280;5542;48.272;10.794;2022-11-20T09:57:25;95239.84;;;6.24;76.79
10978;BME280;5542;48.272;10.794;2022-11-20T09:59:55;95239.84;;;6.24;77.38
10978;BME280;5542;48.272;10.794;2022-11-20T10:02:28;95226.78;;;6.24;77.70
10978;BME280;5542;48.272;10.794;2022-11-20T10:04:59;95231.59;;;6.27;77.09
10978;BME280;5542;48.272;10.794;2022-11-20T10:07:31;95234.13;;;6.34;76.44
10978;BME280;5542;48.272;10.794;2022-11-20T10:10:03;95222.78;;;6.47;75.47
10978;BME280;5542;48.272;10.794;2022-11-20T10:12:37;95226.09;;;6.35;74.93
10978;BME280;5542;48.272;10.794;2022-11-20T10:15:23;95227.91;;;6.35;75.51
10978;BME280;5542;48.272;10.794;2022-11-20T10:18:08;95225.78;;;6.25;76.19
10978;BME280;5542;48.272;10.794;2022-11-20T10:20:43;95232.25;;;6.16;75.98
10978;BME280;5542;48.272;10.794;2022-11-20T10:23:39;95235.66;;;6.16;76.56
10978;BME280;5542;48.272;10.794;2022-11-20T10:26:17;95227.41;;;6.20;76.19
10978;BME280;5542;48.272;10.794;2022-11-20T10:28:55;95230.25;;;6.18;75.88
10978;BME280;5542;48.272;10.794;2022-11-20T10:31:30;95236.84;;;6.21;76.34
10978;BME280;5542;48.272;10.794;2022-11-20T10:34:03;95233.75;;;6.30;74.92
10978;BME280;5542;48.272;10.794;2022-11-20T10:36:34;95228.97;;;6.27;75.63
10978;BME280;5542;48.272;10.794;2022-11-20T10:39:07;95239.22;;;6.29;75.21
10978;BME280;5542;48.272;10.794;2022-11-20T10:41:41;95251.47;;;6.28;74.97
10978;BME280;5542;48.272;10.794;2022-11-20T10:44:12;95235.63;;;6.23;73.75
10978;BME280;5542;48.272;10.794;2022-11-20T10:46:43;95230.84;;;6.20;73.28
10978;BME280;5542;48.272;10.794;2022-11-20T10:49:17;95232.31;;;6.09;74.26
10978;BME280;5542;48.272;10.794;2022-11-20T10:51:53;95232.47;;;6.14;74.33
10978;BME280;5542;48.272;10.794;2022-11-20T10:54:32;95221.56;;;6.24;73.40
10978;BME280;5542;48.272;10.794;2022-11-20T10:57:10;95230.66;;;6.15;74.73
10978;BME280;5542;48.272;10.794;2022-11-20T10:59:58;95225.19;;;6.23;73.65
10978;BME280;5542;48.272;10.794;2022-11-20T11:02:33;95221.97;;;6.21;74.24
10978;BME280;5542;48.272;10.794;2022-11-20T11:05:10;95224.19;;;6.24;74.15
10978;BME280;5542;48.272;10.794;2022-11-20T11:07:39;95216.13;;;6.26;74.27
10978;BME280;5542;48.272;10.794;2022-11-20T11:10:14;95209.41;;;6.11;73.99
10978;BME280;5542;48.272;10.794;2022-11-20T11:12:44;95208.75;;;6.16;74.46
10978;BME280;5542;48.272;10.794;2022-11-20T11:15:14;95207.38;;;6.13;75.10
10978;BME280;5542;48.272;10.794;2022-11-20T11:17:46;95209.78;;;6.15;75.96
10978;BME280;5542;48.272;10.794;2022-11-20T11:20:19;95201.25;;;6.26;75.15
10978;BME280;5542;48.272;10.794;2022-11-20T11:22:48;95203.38;;;6.36;74.84
10978;BME280;5542;48.272;10.794;2022-11-20T11:25:27;95198.06;;;6.24;74.70
10978;BME280;5542;48.272;10.794;2022-11-20T11:27:55;95195.66;;;6.23;74.48
10978;BME280;5542;48.272;10.794;2022-11-20T11:30:24;95194.88;;;6.22;75.19
10978;BME280;5542;48.272;10.794;2022-11-20T11:33:02;95198.63;;;6.26;74.90
10978;BME280;5542;48.272;10.794;2022-11-20T11:35:30;95193.72;;;6.11;75.48
10978;BME280;5542;48.272;10.794;2022-11-20T11:38:03;95192.69;;;6.19;76.23
10978;BME280;5542;48.272;10.794;2022-11-20T11:40:34;95193.41;;;6.26;75.30
10978;BME280;5542;48.272;10.794;2022-11-20T11:43:04;95188.19;;;6.26;75.63
10978;BME280;5542;48.272;10.794;2022-11-20T11:45:52;95195.97;;;6.33;75.45
10978;BME280;5542;48.272;10.794;2022-11-20T11:48:19;95189.97;;;6.32;74.79
10978;BME280;5542;48.272;10.794;2022-11-20T11:50:50;95184.66;;;6.39;73.70
10978;BME280;5542;48.272;10.794;2022-11-20T11:53:18;95188.31;;;6.38;74.66
10978;BME280;5542;48.272;10.794;2022-11-20T11:55:51;95183.22;;;6.43;73.70
10978;BME280;5542;48.272;10.794;2022-11-20T11:58:34;95184.75;;;6.32;74.40
10978;BME280;5542;48.272;10.794;2022-11-20T12:01:13;95188.41;;;6.25;75.79
10978;BME280;5542;48.272;10.794;2022-11-20T12:03:52;95187.00;;;6.47;75.26
10978;BME280;5542;48.272;10.794;2022-11-20T12:06:21;95178.88;;;6.37;74.40
10978;BME280;5542;48.272;10.794;2022-11-20T12:08:53;95183.00;;;6.45;75.50
10978;BME280;5542;48.272;10.794;2022-11-20T12:11:28;95178.94;;;6.49;76.42
10978;BME280;5542;48.272;10.794;2022-11-20T12:13:58;95182.50;;;6.54;76.77
10978;BME280;5542;48.272;10.794;2022-11-20T12:16:30;95178.22;;;6.41;78.09
10978;BME280;5542;48.272;10.794;2022-11-20T12:19:00;95182.31;;;6.31;78.28
10978;BME280;5542;48.272;10.794;2022-11-20T12:21:34;95179.41;;;6.21;79.69
10978;BME280;5542;48.272;10.794;2022-11-20T12:24:16;95182.34;;;6.06;80.45
10978;BME280;5542;48.272;10.794;2022-11-20T12:27:01;95181.63;;;6.17;80.18
10978;BME280;5542;48.272;10.794;2022-11-20T12:29:38;95177.72;;;6.08;80.36
10978;BME280;5542;48.272;10.794;2022-11-20T12:32:39;95176.16;;;6.25;79.97
10978;BME280;5542;48.272;10.794;2022-11-20T12:35:23;95180.91;;;6.10;80.76
10978;BME280;5542;48.272;10.794;2022-11-20T12:38:08;95172.44;;;6.14;80.78
10978;BME280;5542;48.272;10.794;2022-11-20T12:40:46;95180.53;;;6.06;80.44
10978;BME280;5542;48.272;10.794;2022-11-20T12:43:19;95175.09;;;6.08;81.48
10978;BME280;5542;48.272;10.794;2022-11-20T12:46:18;95172.28;;;6.09;80.90
10978;BME280;5542;48.272;10.794;2022-11-20T12:49:06;95178.44;;;6.15;81.43
10978;BME280;5542;48.272;10.794;2022-11-20T12:51:51;95170.78;;;6.20;81.60
10978;BME280;5542;48.272;10.794;2022-11-20T12:57:29;95173.38;;;5.95;83.21
10978;BME280;5542;48.272;10.794;2022-11-20T13:00:07;95174.34;;;6.01;83.08
10978;BME280;5542;48.272;10.794;2022-11-20T13:02:44;95169.34;;;5.99;83.35
10978;BME280;5542;48.272;10.794;2022-11-20T13:05:23;95171.34;;;5.97;84.38
10978;BME280;5542;48.272;10.794;2022-11-20T13:07:53;95175.09;;;6.08;83.06
10978;BME280;5542;48.272;10.794;2022-11-20T13:10:28;95167.16;;;5.96;84.03
10978;BME280;5542;48.272;10.794;2022-11-20T13:13:01;95167.09;;;6.03;83.84
10978;BME280;5542;48.272;10.794;2022-11-20T13:15:40;95158.31;;;5.97;83.82
10978;BME280;5542;48.272;10.794;2022-11-20T13:18:11;95164.44;;;6.09;84.18
10978;BME280;5542;48.272;10.794;2022-11-20T13:20:42;95157.47;;;6.03;84.14
10978;BME280;5542;48.272;10.794;2022-11-20T13:23:08;95151.78;;;6.13;83.60
10978;BME280;5542;48.272;10.794;2022-11-20T13:25:38;95156.06;;;6.01;84.40
10978;BME280;5542;48.272;10.794;2022-11-20T13:28:26;95158.59;;;6.14;84.26